SAMM/LGS METAR and TAF weather

Enter ICAO airport designator
Station Type Date Time Source
SAMM METAR 2019/07/02 11:40 UTC NOAA

SAMM 021140Z 23014G30KT 9999 FEW040 08/M10 Q1008


Station Type Date Time Source
SAMM Decoded METAR 2019/07/02 11:40 UTC NOAA

Malargue Aerodrome, Argentina (SAMM) 35-30S 069-35W 1425M
Jul 02, 2019 - 07:40 AM EDT / 2019.07.02 1140 UTC
Wind: from the SW (230 degrees) at 16 MPH (14 KT) gusting to 35 MPH (30 KT):0
Visibility: greater than 7 mile(s):0
Sky conditions: mostly clear
Temperature: 46 F (8 C)
Dew Point: 14 F (-10 C)
Relative Humidity: 26%
Pressure (altimeter): 29.77 in. Hg (1008 hPa)
ob: SAMM 021140Z 23014G30KT 9999 FEW040 08/M10 Q1008
cycle: 11

Station Type Date Time Source
SAMM TAF UTC NOAA

Error!

Example: see airport list